Time,TemperatureF,DewpointF,PressureIn,WindDirection,WindDirectionDegrees,WindSpeedMPH,WindSpeedGustMPH,Humidity,HourlyPrecipIn,Conditions,Clouds,dailyrainin,SoftwareType,DateUTC
2013-04-05 00:00:00,58.6,19.9,29.70,SW,218,0.0,1.0,22,0.00,,SKC,0.00,VWS V12.07,2013-04-05 06:00:00,
2013-04-05 00:30:00,56.9,21.5,29.67,West,267,0.0,0.0,25,0.00,,SKC,0.00,VWS V12.07,2013-04-05 06:30:00,
2013-04-05 01:00:00,57.3,25.3,29.67,SSW,192,0.0,1.0,29,0.00,,SKC,0.00,VWS V12.07,2013-04-05 07:00:00,
2013-04-05 01:30:00,58.0,22.4,29.64,WSW,238,0.0,0.0,25,0.00,,SKC,0.00,VWS V12.07,2013-04-05 07:30:00,
2013-04-05 02:00:00,58.6,22.9,29.63,NW,322,0.0,1.0,25,0.00,,SKC,0.00,VWS V12.07,2013-04-05 08:00:00,
2013-04-05 02:30:00,59.2,22.5,29.63,West,277,7.0,10.0,24,0.00,,SKC,0.00,VWS V12.07,2013-04-05 08:30:00,
2013-04-05 03:00:00,60.1,21.1,29.62,WNW,297,0.0,16.0,22,0.00,,SKC,0.00,VWS V12.07,2013-04-05 09:00:00,
2013-04-05 03:30:00,60.2,21.2,29.61,NW,312,0.0,10.0,22,0.00,,SKC,0.00,VWS V12.07,2013-04-05 09:30:00,
2013-04-05 04:00:00,58.4,24.6,29.62,West,259,0.0,14.0,27,0.00,,SKC,0.00,VWS V12.07,2013-04-05 10:00:00,
2013-04-05 04:30:00,56.5,27.0,29.64,WSW,252,0.0,14.0,32,0.00,,SKC,0.00,VWS V12.07,2013-04-05 10:30:00,
2013-04-05 05:00:00,57.8,24.1,29.61,WSW,257,0.0,14.0,27,0.00,,SKC,0.00,VWS V12.07,2013-04-05 11:00:00,
2013-04-05 05:30:00,58.0,24.2,29.63,West,264,0.0,9.0,27,0.00,,SKC,0.00,VWS V12.07,2013-04-05 11:30:00,
2013-04-05 06:00:00,58.1,23.4,29.62,West,278,1.0,10.0,26,0.00,,SKC,0.00,VWS V12.07,2013-04-05 12:00:00,
2013-04-05 06:30:00,57.6,24.8,29.62,NNE,24,4.0,11.0,28,0.00,,SKC,0.00,VWS V12.07,2013-04-05 12:30:00,
2013-04-05 07:00:00,56.3,24.5,29.65,WNW,288,0.0,11.0,29,0.00,,SKC,0.00,VWS V12.07,2013-04-05 13:00:00,
2013-04-05 07:30:00,53.5,29.2,29.70,SW,232,0.0,1.0,39,0.00,,SKC,0.00,VWS V12.07,2013-04-05 13:30:00,
2013-04-05 08:00:00,51.9,37.2,29.74,East,82,6.0,14.0,57,0.00,,SKC,0.00,VWS V12.07,2013-04-05 14:00:00,
2013-04-05 08:30:00,47.6,39.0,29.79,North,355,0.0,1.0,72,0.00,,SKC,0.00,VWS V12.07,2013-04-05 14:30:00,
2013-04-05 09:00:00,44.6,38.2,29.81,NE,42,0.0,11.0,78,0.00,,SKC,0.00,VWS V12.07,2013-04-05 15:00:00,
2013-04-05 09:30:00,43.9,38.1,29.81,NE,36,0.0,0.0,80,0.00,,SKC,0.00,VWS V12.07,2013-04-05 15:30:00,
2013-04-05 10:00:00,42.5,37.7,29.82,East,83,7.0,14.0,83,0.00,,SKC,0.00,VWS V12.07,2013-04-05 16:00:00,
2013-04-05 10:30:00,41.5,37.9,29.85,SSE,149,3.0,9.0,87,0.02,,SKC,0.02,VWS V12.07,2013-04-05 16:30:00,
2013-04-05 11:00:00,40.9,38.8,29.87,SSE,148,0.0,10.0,92,0.13,,SKC,0.14,VWS V12.07,2013-04-05 17:00:00,
2013-04-05 11:30:00,39.8,38.0,29.88,SE,138,0.0,4.0,93,0.26,,SKC,0.26,VWS V12.07,2013-04-05 17:30:00,
2013-04-05 12:00:00,40.1,38.5,29.89,SE,142,0.0,4.0,94,0.33,,SKC,0.33,VWS V12.07,2013-04-05 18:00:00,
2013-04-05 12:30:00,40.2,38.3,29.88,SW,231,0.0,5.0,93,0.16,,SKC,0.35,VWS V12.07,2013-04-05 18:30:00,
2013-04-05 13:00:00,42.6,35.9,29.85,SSW,209,0.0,9.0,77,0.17,,SKC,0.36,VWS V12.07,2013-04-05 19:00:00,
2013-04-05 13:30:00,47.0,33.4,29.82,SSE,163,0.0,0.0,59,0.02,,SKC,0.36,VWS V12.07,2013-04-05 19:30:00,
2013-04-05 14:00:00,49.2,30.9,29.80,NW,321,0.0,1.0,49,0.02,,SKC,0.36,VWS V12.07,2013-04-05 20:00:00,
2013-04-05 14:30:00,52.2,33.6,29.77,North,5,0.0,1.0,49,0.00,,SKC,0.36,VWS V12.07,2013-04-05 20:30:00,
2013-04-05 15:00:00,49.9,33.0,29.78,East,89,3.0,5.0,52,0.00,,SKC,0.36,VWS V12.07,2013-04-05 21:00:00,
2013-04-05 15:30:00,52.0,31.9,29.78,ENE,61,0.0,4.0,46,0.00,,SKC,0.36,VWS V12.07,2013-04-05 21:30:00,
2013-04-05 16:00:00,52.9,31.6,29.77,ENE,67,0.0,5.0,44,0.00,,SKC,0.36,VWS V12.07,2013-04-05 22:00:00,
2013-04-05 16:30:00,53.9,33.6,29.75,SE,131,0.0,3.0,46,0.00,,SKC,0.36,VWS V12.07,2013-04-05 22:30:00,
2013-04-05 17:00:00,51.9,32.8,29.76,ESE,106,0.0,7.0,48,0.00,,SKC,0.36,VWS V12.07,2013-04-05 23:00:00,
2013-04-05 17:30:00,52.6,32.4,29.75,ENE,68,0.0,4.0,46,0.00,,SKC,0.36,VWS V12.07,2013-04-05 23:30:00,
2013-04-05 18:00:00,54.5,33.6,29.73,NNE,32,0.0,4.0,45,0.00,,SKC,0.36,VWS V12.07,2013-04-06 00:00:00,
2013-04-05 18:30:00,53.2,33.5,29.76,ENE,69,0.0,4.0,47,0.00,,SKC,0.36,VWS V12.07,2013-04-06 00:30:00,
2013-04-05 19:00:00,52.3,32.7,29.78,ENE,63,1.0,6.0,47,0.00,,SKC,0.36,VWS V12.07,2013-04-06 01:00:00,
2013-04-05 19:30:00,51.6,33.1,29.81,ENE,63,0.0,1.0,49,0.00,,SKC,0.36,VWS V12.07,2013-04-06 01:30:00,
2013-04-05 20:00:00,48.6,32.7,29.83,ENE,63,0.0,1.0,54,0.00,,SKC,0.36,VWS V12.07,2013-04-06 02:00:00,
2013-04-05 20:30:00,45.5,33.2,29.89,ENE,63,0.0,0.0,62,0.00,,SKC,0.36,VWS V12.07,2013-04-06 02:30:00,
2013-04-05 21:00:00,44.6,32.4,29.91,ENE,63,0.0,0.0,62,0.00,,SKC,0.36,VWS V12.07,2013-04-06 03:00:00,
2013-04-05 21:30:00,44.6,32.0,29.94,ENE,63,0.0,0.0,61,0.00,,SKC,0.36,VWS V12.07,2013-04-06 03:30:00,
2013-04-05 22:00:00,44.8,30.5,29.94,ENE,63,0.0,0.0,57,0.00,,SKC,0.36,VWS V12.07,2013-04-06 04:00:00,
2013-04-05 22:30:00,44.9,28.8,29.95,SSW,195,0.0,0.0,53,0.00,,SKC,0.36,VWS V12.07,2013-04-06 04:30:00,
2013-04-05 23:00:00,44.5,28.9,29.95,SSW,195,0.0,0.0,54,0.00,,SKC,0.36,VWS V12.07,2013-04-06 05:00:00,
2013-04-05 23:30:00,44.3,28.7,29.94,SSW,195,0.0,0.0,54,0.00,,SKC,0.36,VWS V12.07,2013-04-06 05:30:00,